Time;durP1;ratioP1;P1;durP2;ratioP2;P2;SDS_P1;SDS_P2;PMS_P1;PMS_P2;Temp;Humidity;BMP_temperature;BMP_pressure;BME280_temperature;BME280_humidity;BME280_pressure;Samples;Min_cycle;Max_cycle;Signal;HPM_P1;HPM_P2
2021/05/22 00:01:37;;;;;;;3.37;1.13;;;18.10;62.50;;;;;;5098135;28;20755;-70
2021/05/22 00:04:05;;;;;;;4.83;1.50;;;18.10;63.00;;;;;;5100429;28;20553;-70
2021/05/22 00:06:32;;;;;;;4.80;1.23;;;18.00;63.40;;;;;;5102310;28;20291;-70
2021/05/22 00:08:59;;;;;;;3.37;1.10;;;18.00;63.40;;;;;;5102000;28;20303;-70
2021/05/22 00:11:26;;;;;;;5.03;1.23;;;18.00;62.90;;;;;;5100510;28;20219;-70
2021/05/22 00:13:53;;;;;;;2.80;1.10;;;18.00;62.30;;;;;;5103356;28;20890;-70
2021/05/22 00:16:20;;;;;;;6.93;1.97;;;18.00;62.00;;;;;;5100888;28;20220;-70
2021/05/22 00:18:47;;;;;;;4.23;1.43;;;18.00;61.70;;;;;;5105179;28;20720;-70
2021/05/22 00:21:14;;;;;;;5.20;1.40;;;18.00;61.60;;;;;;5096400;28;20538;-70
2021/05/22 00:23:41;;;;;;;5.70;1.57;;;18.10;61.50;;;;;;5085906;28;20255;-70
2021/05/22 00:26:08;;;;;;;8.13;1.80;;;18.10;61.60;;;;;;5099024;28;20423;-70
2021/05/22 00:28:36;;;;;;;1.87;0.97;;;18.20;61.20;;;;;;5083632;28;20200;-70
2021/05/22 00:31:03;;;;;;;5.53;1.13;;;18.20;60.50;;;;;;5102870;28;20221;-70
2021/05/22 00:33:30;;;;;;;5.93;1.43;;;18.20;59.90;;;;;;5099588;28;20204;-70
2021/05/22 00:35:57;;;;;;;5.30;1.67;;;18.20;59.80;;;;;;5101855;28;20238;-70
2021/05/22 00:38:24;;;;;;;1.90;0.70;;;18.20;59.90;;;;;;5102707;28;20212;-70
2021/05/22 00:40:51;;;;;;;3.17;1.10;;;18.20;59.80;;;;;;5085544;28;20224;-70
2021/05/22 00:43:19;;;;;;;4.93;1.57;;;18.20;59.90;;;;;;5104610;28;20306;-70
2021/05/22 00:45:47;;;;;;;3.13;1.43;;;18.10;59.60;;;;;;5081101;28;20209;-70
2021/05/22 00:48:14;;;;;;;4.43;1.20;;;18.20;59.80;;;;;;5086503;28;20632;-70
2021/05/22 00:50:42;;;;;;;1.63;0.80;;;18.10;59.30;;;;;;5079308;28;20220;-70
2021/05/22 00:53:10;;;;;;;2.50;1.13;;;18.10;59.00;;;;;;5099951;28;20293;-70
2021/05/22 00:55:39;;;;;;;2.93;1.00;;;18.10;58.70;;;;;;5098892;28;20247;-70
2021/05/22 00:58:06;;;;;;;2.60;1.33;;;18.00;58.60;;;;;;5082964;28;20291;-70
2021/05/22 01:00:43;;;;;;;7.40;1.37;;;18.00;58.90;;;;;;5103198;28;20239;-70
2021/05/22 01:03:27;;;;;;;5.43;1.30;;;17.90;59.30;;;;;;5066312;28;20210;-70
2021/05/22 01:06:10;;;;;;;5.97;1.20;;;17.90;59.60;;;;;;5104133;28;20209;-70
2021/05/22 01:08:39;;;;;;;3.37;1.13;;;17.80;59.70;;;;;;5099666;28;20212;-70
2021/05/22 01:11:18;;;;;;;2.40;1.20;;;17.80;59.60;;;;;;5091151;28;20827;-70
2021/05/22 01:13:52;;;;;;;6.20;1.50;;;17.80;59.40;;;;;;5083683;28;20278;-70
2021/05/22 01:16:21;;;;;;;2.97;1.13;;;17.80;59.40;;;;;;5088919;28;20273;-70
2021/05/22 01:18:49;;;;;;;4.10;1.10;;;17.80;59.30;;;;;;5105092;28;20219;-70
2021/05/22 01:21:17;;;;;;;5.87;1.20;;;17.90;59.20;;;;;;5105839;28;20630;-69
2021/05/22 01:23:57;;;;;;;5.03;1.23;;;17.90;58.90;;;;;;5104433;28;20237;-70
2021/05/22 01:26:26;;;;;;;2.70;1.03;;;17.90;58.80;;;;;;5104358;28;20247;-70
2021/05/22 01:28:57;;;;;;;6.53;1.60;;;18.00;58.40;;;;;;5105326;28;20216;-70
2021/05/22 01:31:25;;;;;;;7.30;1.37;;;18.00;58.40;;;;;;5105100;28;20208;-70
2021/05/22 01:33:53;;;;;;;7.77;1.10;;;18.00;58.50;;;;;;5105438;28;20217;-70
2021/05/22 01:36:20;;;;;;;4.47;0.90;;;18.00;58.70;;;;;;5104096;28;20226;-70
2021/05/22 01:38:47;;;;;;;5.10;1.27;;;17.90;59.00;;;;;;5104951;28;20217;-70
2021/05/22 01:41:14;;;;;;;2.77;0.97;;;17.90;59.60;;;;;;5106072;28;20357;-70
2021/05/22 01:43:48;;;;;;;6.83;1.17;;;17.90;59.20;;;;;;5105887;28;20216;-70
2021/05/22 01:46:17;;;;;;;2.33;1.00;;;17.80;59.30;;;;;;5086599;28;20663;-69
2021/05/22 01:48:45;;;;;;;5.80;1.20;;;17.80;59.40;;;;;;5105949;28;20212;-69
2021/05/22 01:51:15;;;;;;;5.17;1.37;;;17.70;59.50;;;;;;5103338;28;20221;-69
2021/05/22 01:53:42;;;;;;;3.80;1.10;;;17.70;59.70;;;;;;5105583;28;20222;-69
2021/05/22 01:56:10;;;;;;;3.70;1.10;;;17.70;59.80;;;;;;5101105;28;20217;-69
2021/05/22 01:58:38;;;;;;;3.80;1.33;;;17.70;59.80;;;;;;5106202;28;20555;-70
2021/05/22 02:01:09;;;;;;;2.00;0.87;;;17.60;59.70;;;;;;5102371;28;20753;-70
2021/05/22 02:03:42;;;;;;;6.40;1.37;;;17.60;59.70;;;;;;5103592;28;20220;-70
2021/05/22 02:06:18;;;;;;;2.90;1.23;;;17.60;59.90;;;;;;5103448;28;20276;-70
2021/05/22 02:08:47;;;;;;;3.43;1.03;;;17.60;60.20;;;;;;5087176;28;20240;-70
2021/05/22 02:11:15;;;;;;;4.77;1.43;;;17.50;60.50;;;;;;5107041;28;20212;-70
2021/05/22 02:13:44;;;;;;;2.93;1.00;;;17.50;60.70;;;;;;5099884;28;20204;-70
2021/05/22 02:16:12;;;;;;;7.33;1.50;;;17.40;60.70;;;;;;5101684;28;20205;-70
2021/05/22 02:18:42;;;;;;;6.63;1.23;;;17.40;60.70;;;;;;5087160;28;20220;-70
2021/05/22 02:21:10;;;;;;;4.07;1.43;;;17.40;61.00;;;;;;5102641;28;20245;-70
2021/05/22 02:23:45;;;;;;;2.73;1.17;;;17.40;61.20;;;;;;5105072;28;20308;-70
2021/05/22 02:26:13;;;;;;;3.70;1.30;;;17.40;61.40;;;;;;5102752;28;20354;-69
2021/05/22 02:28:42;;;;;;;4.83;1.47;;;17.30;61.30;;;;;;5104554;28;20231;-69
2021/05/22 02:31:10;;;;;;;4.37;1.27;;;17.30;61.40;;;;;;5102906;28;20243;-69
2021/05/22 02:33:38;;;;;;;4.20;1.20;;;17.30;61.60;;;;;;5104607;28;20252;-69
2021/05/22 02:36:06;;;;;;;2.67;1.23;;;17.30;61.80;;;;;;5102080;28;20650;-69
2021/05/22 02:38:42;;;;;;;8.60;1.77;;;17.30;62.10;;;;;;5106206;28;20284;-69
2021/05/22 02:41:10;;;;;;;5.80;1.23;;;17.20;62.40;;;;;;5099129;28;20312;-69
2021/05/22 02:43:43;;;;;;;3.47;1.07;;;17.20;62.80;;;;;;5104854;28;20261;-69
2021/05/22 02:46:11;;;;;;;6.50;1.20;;;17.20;63.10;;;;;;5100013;28;20258;-69
2021/05/22 02:48:39;;;;;;;7.40;1.33;;;17.20;63.40;;;;;;5104147;28;20204;-69
2021/05/22 02:51:09;;;;;;;6.07;1.27;;;17.20;63.60;;;;;;5102179;28;20217;-70
2021/05/22 02:53:37;;;;;;;6.27;1.30;;;17.30;63.80;;;;;;5105016;28;20220;-69
2021/05/22 02:56:06;;;;;;;2.27;0.93;;;17.30;64.00;;;;;;5100709;28;20299;-70
2021/05/22 02:58:36;;;;;;;6.93;1.47;;;17.20;64.20;;;;;;5104738;28;20284;-70
2021/05/22 03:01:06;;;;;;;4.60;1.13;;;17.20;64.50;;;;;;5101918;28;20725;-69
2021/05/22 03:03:36;;;;;;;3.13;1.10;;;17.20;64.60;;;;;;5104483;28;20239;-70
2021/05/22 03:06:05;;;;;;;3.30;1.10;;;17.20;64.60;;;;;;5101784;28;20258;-70
2021/05/22 03:08:46;;;;;;;6.97;1.27;;;17.20;64.70;;;;;;5105328;28;20209;-70
2021/05/22 03:11:16;;;;;;;4.83;1.33;;;17.20;64.90;;;;;;5084539;28;20205;-70
2021/05/22 03:13:43;;;;;;;6.80;1.47;;;17.20;64.90;;;;;;5102936;28;20209;-70
2021/05/22 03:16:10;;;;;;;5.43;1.30;;;17.30;65.10;;;;;;5084773;28;20213;-70
2021/05/22 03:18:39;;;;;;;4.83;1.20;;;17.30;65.00;;;;;;5104858;28;20212;-69
2021/05/22 03:21:06;;;;;;;5.57;1.57;;;17.30;65.00;;;;;;5102333;28;20233;-69
2021/05/22 03:23:34;;;;;;;4.07;1.30;;;17.30;65.00;;;;;;5101561;28;20272;-70
2021/05/22 03:26:01;;;;;;;3.00;1.00;;;17.40;65.20;;;;;;5100742;28;20206;-70
2021/05/22 03:28:30;;;;;;;2.83;1.00;;;17.40;65.20;;;;;;5101039;28;20213;-70
2021/05/22 03:30:57;;;;;;;5.70;1.30;;;17.40;65.30;;;;;;5104796;28;20235;-69
2021/05/22 03:33:24;;;;;;;3.83;1.27;;;17.40;65.40;;;;;;5100630;28;20244;-69
2021/05/22 03:35:51;;;;;;;4.90;1.30;;;17.40;65.50;;;;;;5096704;28;20213;-69
2021/05/22 03:38:19;;;;;;;7.73;1.53;;;17.40;65.60;;;;;;5104049;28;20656;-69
2021/05/22 03:40:46;;;;;;;3.90;1.27;;;17.40;65.80;;;;;;5098582;28;20236;-69
2021/05/22 03:43:13;;;;;;;4.53;1.60;;;17.30;65.80;;;;;;5102164;28;20227;-69
2021/05/22 03:45:41;;;;;;;2.70;1.10;;;17.40;65.90;;;;;;5102505;28;20422;-69
2021/05/22 03:48:08;;;;;;;3.40;1.20;;;17.40;65.80;;;;;;5098095;28;20262;-69
2021/05/22 03:50:35;;;;;;;3.87;1.33;;;17.40;65.80;;;;;;5101999;28;20613;-69
2021/05/22 03:53:02;;;;;;;3.83;1.40;;;17.40;65.90;;;;;;5085028;28;20566;-69
2021/05/22 03:55:30;;;;;;;4.93;1.67;;;17.40;65.90;;;;;;5104171;28;20220;-69
2021/05/22 03:57:59;;;;;;;4.30;1.73;;;17.40;66.20;;;;;;5100537;28;20216;-69
2021/05/22 04:00:26;;;;;;;7.13;1.33;;;17.40;66.30;;;;;;5100626;28;20706;-69
2021/05/22 04:02:53;;;;;;;6.47;1.47;;;17.50;66.40;;;;;;5086330;28;20485;-69
2021/05/22 04:05:20;;;;;;;9.13;1.50;;;17.50;66.30;;;;;;5100694;28;20574;-69
2021/05/22 04:07:47;;;;;;;5.50;1.13;;;17.50;66.40;;;;;;5095996;28;20602;-69
2021/05/22 04:10:15;;;;;;;4.00;1.10;;;17.60;66.40;;;;;;5103135;28;20197;-69
2021/05/22 04:12:42;;;;;;;8.07;1.70;;;17.60;66.40;;;;;;5100878;28;20293;-69
2021/05/22 04:15:10;;;;;;;3.27;1.30;;;17.60;66.40;;;;;;5102493;28;20278;-70
2021/05/22 04:17:37;;;;;;;6.37;1.20;;;17.60;66.50;;;;;;5101896;28;20819;-70
2021/05/22 04:20:05;;;;;;;8.50;1.77;;;17.70;66.40;;;;;;5101984;28;20208;-70
2021/05/22 04:22:32;;;;;;;5.23;1.40;;;17.70;66.40;;;;;;5101848;28;20225;-70
2021/05/22 04:25:00;;;;;;;4.00;1.33;;;17.70;66.30;;;;;;5101818;28;20244;-70
2021/05/22 04:27:27;;;;;;;5.43;1.30;;;17.70;66.20;;;;;;5099240;28;20255;-70
2021/05/22 04:29:54;;;;;;;5.50;1.10;;;17.80;66.30;;;;;;5082391;28;20208;-70
2021/05/22 04:32:21;;;;;;;5.33;1.20;;;17.80;66.20;;;;;;5100605;28;20223;-69
2021/05/22 04:34:49;;;;;;;3.93;1.57;;;17.80;66.20;;;;;;5104328;28;20247;-69
2021/05/22 04:37:16;;;;;;;5.37;1.27;;;17.80;66.10;;;;;;5100246;28;20255;-70
2021/05/22 04:39:43;;;;;;;4.83;0.90;;;17.90;66.10;;;;;;5104014;28;20216;-69
2021/05/22 04:42:10;;;;;;;6.03;1.57;;;17.90;66.70;;;;;;5106014;28;20229;-69
2021/05/22 04:44:37;;;;;;;7.97;1.27;;;17.90;65.80;;;;;;5089244;28;20245;-69
2021/05/22 04:47:05;;;;;;;4.03;1.23;;;18.00;65.80;;;;;;5107437;28;20579;-69
2021/05/22 04:49:32;;;;;;;5.97;1.17;;;18.00;65.80;;;;;;5103049;28;20235;-69
2021/05/22 04:51:59;;;;;;;2.43;1.00;;;18.10;65.60;;;;;;5088330;28;20276;-69
2021/05/22 04:54:26;;;;;;;4.00;1.30;;;18.10;65.50;;;;;;5105450;28;20238;-69
2021/05/22 04:56:53;;;;;;;4.43;1.10;;;18.10;65.50;;;;;;5107359;28;20299;-69
2021/05/22 04:59:21;;;;;;;4.60;1.27;;;18.20;65.60;;;;;;5106743;28;20295;-69
2021/05/22 05:01:48;;;;;;;4.27;1.00;;;18.20;65.70;;;;;;5103665;28;20625;-69
2021/05/22 05:04:16;;;;;;;3.47;1.20;;;18.20;65.70;;;;;;5107385;28;20291;-70
2021/05/22 05:06:43;;;;;;;5.93;1.40;;;18.30;65.70;;;;;;5100282;28;20212;-70
2021/05/22 05:09:10;;;;;;;3.33;1.40;;;18.30;65.60;;;;;;5107001;28;20522;-70
2021/05/22 05:11:37;;;;;;;5.93;1.97;;;18.40;65.80;;;;;;5085926;28;20251;-69
2021/05/22 05:14:04;;;;;;;5.00;1.73;;;18.40;65.70;;;;;;5106715;28;20241;-70
2021/05/22 05:16:31;;;;;;;4.57;1.37;;;18.50;65.70;;;;;;5105149;28;20211;-70
2021/05/22 05:18:59;;;;;;;6.17;1.33;;;18.60;66.10;;;;;;5105576;28;20248;-70
2021/05/22 05:21:26;;;;;;;6.77;1.30;;;18.60;66.50;;;;;;5085229;28;20282;-70
2021/05/22 05:23:53;;;;;;;3.07;1.20;;;18.60;67.10;;;;;;5105194;28;20672;-70
2021/05/22 05:26:20;;;;;;;6.67;1.63;;;18.60;67.50;;;;;;5104545;28;20213;-70
2021/05/22 05:28:47;;;;;;;4.03;1.30;;;18.60;67.80;;;;;;5102909;28;20227;-70
2021/05/22 05:31:15;;;;;;;5.97;1.57;;;18.70;67.80;;;;;;5103276;28;20229;-70
2021/05/22 05:33:42;;;;;;;5.50;1.50;;;18.80;67.90;;;;;;5106373;28;20217;-70
2021/05/22 05:36:09;;;;;;;4.20;1.63;;;18.90;67.80;;;;;;5099236;28;20209;-70
2021/05/22 05:38:36;;;;;;;4.00;1.40;;;19.10;67.80;;;;;;5088731;28;20308;-69
2021/05/22 05:41:03;;;;;;;7.57;1.37;;;19.20;67.50;;;;;;5085907;28;20236;-69
2021/05/22 05:43:30;;;;;;;5.00;1.40;;;19.40;67.00;;;;;;5105590;28;20228;-69
2021/05/22 05:45:58;;;;;;;4.17;1.50;;;19.50;66.30;;;;;;5083967;28;20637;-69
2021/05/22 05:48:25;;;;;;;4.20;1.27;;;19.60;65.80;;;;;;5103386;28;20213;-70
2021/05/22 05:50:52;;;;;;;7.80;1.53;;;19.70;65.40;;;;;;5095613;28;20213;-70
2021/05/22 05:53:19;;;;;;;3.03;1.30;;;19.90;65.10;;;;;;5105712;28;20236;-70
2021/05/22 05:55:46;;;;;;;5.07;1.23;;;20.00;64.80;;;;;;5103784;28;20640;-70
2021/05/22 05:58:14;;;;;;;3.40;1.47;;;20.10;64.50;;;;;;5105758;28;20280;-70
2021/05/22 06:00:41;;;;;;;4.00;1.60;;;20.20;64.60;;;;;;5102975;28;20567;-70
2021/05/22 06:03:08;;;;;;;5.67;1.30;;;20.30;64.50;;;;;;5105948;28;20680;-70
2021/05/22 06:05:35;;;;;;;4.73;1.30;;;20.30;63.90;;;;;;5098774;28;20700;-70
2021/05/22 06:08:02;;;;;;;4.33;1.13;;;20.40;63.50;;;;;;5102893;28;20209;-70
2021/05/22 06:10:29;;;;;;;2.93;1.27;;;20.40;63.40;;;;;;5106057;28;20205;-70
2021/05/22 06:12:57;;;;;;;3.43;1.00;;;20.50;63.40;;;;;;5105074;28;20269;-70
2021/05/22 06:15:31;;;;;;;6.47;2.40;;;20.60;62.70;;;;;;5102017;28;20302;-69
2021/05/22 06:17:58;;;;;;;6.63;1.67;;;20.80;62.10;;;;;;5103319;28;20219;-69
2021/05/22 06:20:27;;;;;;;7.67;1.40;;;21.00;61.20;;;;;;5105230;28;20216;-69
2021/05/22 06:22:54;;;;;;;5.17;1.80;;;21.10;60.90;;;;;;5105001;28;20228;-69
2021/05/22 06:25:22;;;;;;;3.80;1.20;;;21.30;60.60;;;;;;5102378;28;20544;-70
2021/05/22 06:27:49;;;;;;;4.43;1.10;;;21.50;60.40;;;;;;5101944;28;20213;-70
2021/05/22 06:30:17;;;;;;;2.30;1.10;;;21.80;58.70;;;;;;5102609;28;20213;-70
2021/05/22 06:32:44;;;;;;;1.73;1.23;;;22.10;57.90;;;;;;5103205;28;20212;-70
2021/05/22 06:35:11;;;;;;;6.20;1.83;;;22.40;57.20;;;;;;5098239;28;20605;-70
2021/05/22 06:37:38;;;;;;;5.17;1.50;;;22.70;56.20;;;;;;5105126;28;20704;-70
2021/05/22 06:40:06;;;;;;;2.13;1.10;;;22.70;55.20;;;;;;5085022;28;20243;-70
2021/05/22 06:42:34;;;;;;;3.40;1.17;;;22.70;55.10;;;;;;5097401;28;20234;-70
2021/05/22 06:45:09;;;;;;;9.00;1.93;;;22.40;55.60;;;;;;5080452;28;20209;-70
2021/05/22 06:47:36;;;;;;;3.20;1.30;;;22.10;56.10;;;;;;5099319;28;20212;-70
2021/05/22 06:50:04;;;;;;;12.47;1.97;;;21.90;56.70;;;;;;5105376;28;20204;-70
2021/05/22 06:52:31;;;;;;;7.10;1.90;;;21.70;57.20;;;;;;5097014;28;20213;-70
2021/05/22 06:54:59;;;;;;;4.77;1.90;;;21.50;57.90;;;;;;5097637;28;20258;-70
2021/05/22 06:57:27;;;;;;;4.63;1.80;;;21.50;58.70;;;;;;5087246;28;20242;-70
2021/05/22 06:59:54;;;;;;;4.23;1.77;;;21.40;59.10;;;;;;5102900;28;20355;-70
2021/05/22 07:02:21;;;;;;;4.57;1.50;;;21.40;59.20;;;;;;5105252;28;20272;-70
2021/05/22 07:04:49;;;;;;;4.67;1.40;;;21.40;59.10;;;;;;5085809;28;20212;-70
2021/05/22 07:07:16;;;;;;;2.90;1.30;;;21.50;59.20;;;;;;5103559;28;20274;-70
2021/05/22 07:09:43;;;;;;;4.10;1.50;;;21.60;59.60;;;;;;5103762;28;20208;-70
2021/05/22 07:12:11;;;;;;;4.87;1.47;;;22.00;58.90;;;;;;5102427;28;20266;-70
2021/05/22 07:14:38;;;;;;;5.47;1.50;;;22.30;57.20;;;;;;5100593;28;20238;-70
2021/05/22 07:17:05;;;;;;;7.53;1.53;;;22.50;55.00;;;;;;5104517;28;20224;-70
2021/05/22 07:19:32;;;;;;;7.17;1.77;;;22.50;55.10;;;;;;5101512;28;20225;-70
2021/05/22 07:22:00;;;;;;;7.03;1.20;;;22.40;55.50;;;;;;5098938;28;20753;-70
2021/05/22 07:24:28;;;;;;;7.90;1.50;;;22.40;55.80;;;;;;5100932;28;20574;-70
2021/05/22 07:26:56;;;;;;;8.13;1.57;;;22.50;55.60;;;;;;5104142;28;20237;-70
2021/05/22 07:29:24;;;;;;;5.47;1.70;;;22.60;55.80;;;;;;5101445;28;20300;-70
2021/05/22 07:31:52;;;;;;;3.93;1.37;;;22.60;55.20;;;;;;5103928;28;20216;-70
2021/05/22 07:34:23;;;;;;;6.27;1.50;;;22.50;55.20;;;;;;5099003;28;20558;-70
2021/05/22 07:36:52;;;;;;;3.20;1.57;;;22.30;56.40;;;;;;5101262;28;20221;-70
2021/05/22 07:39:19;;;;;;;4.40;1.47;;;22.20;55.20;;;;;;5104255;28;20213;-70
2021/05/22 07:41:47;;;;;;;6.57;1.77;;;22.00;55.60;;;;;;5100780;28;20228;-70
2021/05/22 07:44:14;;;;;;;5.47;1.43;;;22.00;56.20;;;;;;5101567;28;20697;-70
2021/05/22 07:46:42;;;;;;;5.73;1.30;;;22.00;56.10;;;;;;5083189;28;20331;-69
2021/05/22 07:49:10;;;;;;;4.40;1.33;;;22.00;55.80;;;;;;5102257;28;20205;-69
2021/05/22 07:51:39;;;;;;;3.90;1.43;;;22.10;56.40;;;;;;5102878;28;20250;-69
2021/05/22 07:54:07;;;;;;;7.43;1.93;;;22.10;55.90;;;;;;5102137;28;20224;-69
2021/05/22 07:56:34;;;;;;;8.90;2.17;;;22.10;56.00;;;;;;5103094;28;20212;-69
2021/05/22 07:59:01;;;;;;;6.07;1.83;;;22.20;56.10;;;;;;5097299;28;20558;-69
2021/05/22 08:01:28;;;;;;;4.17;1.40;;;22.20;55.60;;;;;;5103839;28;20265;-69
2021/05/22 08:03:55;;;;;;;4.47;1.23;;;22.40;55.10;;;;;;5100714;28;20250;-69
2021/05/22 08:06:22;;;;;;;3.13;1.10;;;22.60;53.60;;;;;;5086862;28;20243;-69
2021/05/22 08:08:49;;;;;;;3.57;1.07;;;22.70;52.00;;;;;;5100692;28;20209;-69
2021/05/22 08:11:16;;;;;;;5.43;1.40;;;22.90;51.30;;;;;;5103169;28;20295;-69
2021/05/22 08:13:44;;;;;;;5.60;1.17;;;23.10;51.90;;;;;;5101355;28;20220;-69
2021/05/22 08:16:11;;;;;;;3.67;1.47;;;23.20;51.30;;;;;;5085042;28;20217;-69
2021/05/22 08:18:39;;;;;;;6.00;1.53;;;23.20;51.40;;;;;;5102277;28;20240;-69
2021/05/22 08:21:06;;;;;;;5.43;1.40;;;23.00;52.10;;;;;;5101569;28;20221;-69
2021/05/22 08:23:34;;;;;;;4.87;1.50;;;22.90;52.50;;;;;;5102468;28;20244;-70
2021/05/22 08:26:01;;;;;;;3.67;1.50;;;22.70;52.10;;;;;;5101371;28;20270;-70
2021/05/22 08:28:48;;;;;;;8.13;2.57;;;22.60;52.10;;;;;;5099223;28;20208;-70
2021/05/22 08:31:16;;;;;;;3.97;1.60;;;22.50;52.30;;;;;;5100619;28;20754;-70
2021/05/22 08:33:44;;;;;;;3.93;1.50;;;22.40;51.90;;;;;;5102266;28;20200;-70
2021/05/22 08:36:11;;;;;;;4.50;1.20;;;22.20;51.00;;;;;;5082892;28;20253;-69
2021/05/22 08:38:39;;;;;;;6.20;2.00;;;22.20;51.70;;;;;;5102211;28;20204;-70
2021/05/22 08:41:08;;;;;;;5.13;1.33;;;22.10;52.00;;;;;;5102024;28;20230;-70
2021/05/22 08:43:36;;;;;;;3.60;1.17;;;22.10;53.80;;;;;;5102005;28;20326;-70
2021/05/22 08:46:10;;;;;;;4.97;1.40;;;22.10;55.10;;;;;;5099015;28;20293;-70
2021/05/22 08:48:38;;;;;;;4.63;1.40;;;22.20;54.90;;;;;;5101685;28;20216;-70
2021/05/22 08:51:08;;;;;;;7.57;1.43;;;22.30;53.90;;;;;;5104105;28;20214;-70
2021/05/22 08:53:35;;;;;;;2.73;1.37;;;22.50;53.50;;;;;;5102157;28;20247;-70
2021/05/22 08:56:03;;;;;;;5.97;1.80;;;22.70;50.40;;;;;;5102053;28;20212;-70
2021/05/22 08:58:31;;;;;;;4.67;1.40;;;22.90;50.50;;;;;;5101262;28;20217;-70
2021/05/22 09:01:01;;;;;;;4.33;1.40;;;23.20;50.80;;;;;;5102114;28;20216;-70
2021/05/22 09:03:29;;;;;;;5.07;1.27;;;23.50;50.60;;;;;;5101180;28;20233;-70
2021/05/22 09:05:56;;;;;;;2.27;1.17;;;23.90;50.30;;;;;;5102872;28;20209;-70
2021/05/22 09:08:23;;;;;;;4.97;1.30;;;24.40;49.70;;;;;;5082566;28;20205;-70
2021/05/22 09:10:52;;;;;;;2.20;1.10;;;24.70;47.90;;;;;;5083718;28;20259;-70
2021/05/22 09:13:25;;;;;;;4.47;1.23;;;24.70;48.00;;;;;;5103725;28;20216;-70
2021/05/22 09:16:02;;;;;;;1.93;1.07;;;24.80;48.10;;;;;;5084918;28;20313;-70
2021/05/22 09:18:36;;;;;;;3.23;1.30;;;25.00;46.70;;;;;;5084670;28;20208;-70
2021/05/22 09:21:06;;;;;;;2.43;1.20;;;25.10;47.40;;;;;;5101873;28;20311;-70
2021/05/22 09:23:36;;;;;;;3.37;1.27;;;25.40;47.80;;;;;;5104396;28;20255;-70
2021/05/22 09:26:13;;;;;;;4.40;1.40;;;25.60;46.70;;;;;;5088172;28;20217;-70
2021/05/22 09:28:48;;;;;;;3.70;0.97;;;25.80;46.20;;;;;;5104009;28;20637;-70
2021/05/22 09:31:21;;;;;;;3.93;1.00;;;25.80;45.90;;;;;;5099720;28;20295;-70
2021/05/22 09:33:49;;;;;;;3.67;1.17;;;25.70;46.40;;;;;;5100385;28;20212;-70
2021/05/22 09:36:17;;;;;;;4.70;1.00;;;25.60;46.90;;;;;;5106697;28;20299;-70
2021/05/22 09:38:44;;;;;;;3.93;1.37;;;25.60;46.10;;;;;;5098134;28;20217;-70
2021/05/22 09:41:24;;;;;;;1.97;1.20;;;25.70;46.20;;;;;;5105383;28;20251;-70
2021/05/22 09:44:13;;;;;;;3.30;0.90;;;26.00;45.60;;;;;;5101200;28;20245;-70
2021/05/22 09:46:43;;;;;;;1.13;0.80;;;26.20;43.90;;;;;;5085454;28;20300;-69
2021/05/22 09:49:21;;;;;;;3.60;1.00;;;26.40;43.40;;;;;;5099143;28;20267;-69
2021/05/22 09:52:01;;;;;;;3.13;0.93;;;26.60;43.70;;;;;;5100206;28;20244;-69
2021/05/22 09:55:01;;;;;;;3.13;1.17;;;26.70;43.10;;;;;;5104427;28;20277;-69
2021/05/22 09:57:38;;;;;;;0.77;0.67;;;26.70;42.30;;;;;;5101586;28;20220;-69
2021/05/22 10:00:11;;;;;;;1.63;0.90;;;26.80;42.50;;;;;;5106039;28;20208;-69
2021/05/22 10:02:41;;;;;;;2.37;0.80;;;26.80;42.00;;;;;;5103202;28;20245;-70
2021/05/22 10:05:17;;;;;;;1.67;0.90;;;26.80;42.50;;;;;;5103266;28;20213;-70
2021/05/22 10:07:46;;;;;;;4.73;1.10;;;26.90;42.10;;;;;;5099898;28;20713;-70
2021/05/22 10:10:15;;;;;;;2.40;1.20;;;26.90;41.90;;;;;;5106214;28;20631;-70
2021/05/22 10:12:45;;;;;;;1.93;0.80;;;27.00;42.40;;;;;;5102823;28;20613;-70
2021/05/22 10:15:17;;;;;;;4.53;1.30;;;27.10;43.00;;;;;;5100574;28;20403;-70
2021/05/22 10:17:45;;;;;;;1.90;0.80;;;27.20;42.00;;;;;;5099662;28;20244;-70
2021/05/22 10:20:13;;;;;;;2.80;1.03;;;27.20;42.80;;;;;;5099146;28;20254;-70
2021/05/22 10:22:42;;;;;;;2.80;1.20;;;27.20;42.30;;;;;;5099613;28;20293;-70
2021/05/22 10:25:09;;;;;;;3.87;1.23;;;27.20;41.70;;;;;;5098624;28;20273;-70
2021/05/22 10:27:37;;;;;;;3.43;1.07;;;27.20;42.30;;;;;;5095890;28;20611;-70
2021/05/22 10:30:07;;;;;;;3.07;0.90;;;27.30;42.00;;;;;;5088312;28;20212;-70
2021/05/22 10:32:37;;;;;;;5.87;1.27;;;27.50;41.40;;;;;;5101610;28;20275;-70
2021/05/22 10:35:16;;;;;;;2.00;1.30;;;27.70;41.20;;;;;;5102902;28;20539;-70
2021/05/22 10:37:45;;;;;;;5.93;1.10;;;27.90;41.30;;;;;;5094687;28;20213;-70
2021/05/22 10:40:15;;;;;;;3.40;1.33;;;28.10;40.20;;;;;;5087049;28;20212;-70
2021/05/22 10:42:53;;;;;;;4.07;1.20;;;28.20;40.70;;;;;;5101282;28;20716;-70
2021/05/22 10:45:27;;;;;;;3.87;0.97;;;28.30;40.00;;;;;;5104151;28;20208;-70
2021/05/22 10:47:59;;;;;;;1.83;0.70;;;28.40;39.70;;;;;;5086341;28;20655;-70
2021/05/22 10:50:43;;;;;;;1.47;1.10;;;28.40;40.30;;;;;;5085806;28;20578;-70
2021/05/22 10:53:17;;;;;;;4.70;0.97;;;28.40;40.10;;;;;;5080495;28;20716;-70
2021/05/22 10:55:45;;;;;;;4.07;1.20;;;28.40;40.80;;;;;;5065816;28;20271;-70
2021/05/22 10:58:12;;;;;;;2.73;1.10;;;28.60;40.70;;;;;;5104428;28;20216;-70
2021/05/22 11:00:39;;;;;;;1.97;1.10;;;28.80;40.10;;;;;;5101843;28;20216;-70
2021/05/22 11:03:07;;;;;;;2.20;1.13;;;28.90;39.50;;;;;;5082686;28;20221;-70
2021/05/22 11:05:43;;;;;;;4.40;1.40;;;28.90;39.20;;;;;;5071655;28;20497;-70
2021/05/22 11:08:13;;;;;;;3.67;1.50;;;28.90;39.20;;;;;;5101038;28;20204;-70
2021/05/22 11:10:42;;;;;;;4.70;1.33;;;28.90;39.00;;;;;;5101726;28;20212;-70
2021/05/22 11:13:23;;;;;;;3.60;1.27;;;28.90;38.70;;;;;;5104450;28;20249;-70
2021/05/22 11:15:56;;;;;;;3.30;1.30;;;28.90;38.80;;;;;;5103439;28;20426;-70
2021/05/22 11:18:26;;;;;;;4.00;1.23;;;28.80;38.00;;;;;;5102533;28;20212;-70
2021/05/22 11:21:16;;;;;;;3.67;1.07;;;28.70;38.20;;;;;;5102512;28;20224;-70
2021/05/22 11:23:58;;;;;;;3.57;1.20;;;28.70;39.10;;;;;;5099947;28;20332;-70
2021/05/22 11:27:02;;;;;;;5.43;1.70;;;28.70;38.00;;;;;;5101608;28;20209;-70
2021/05/22 11:29:53;;;;;;;3.47;1.30;;;28.50;38.80;;;;;;5100413;28;20266;-70
2021/05/22 11:32:47;;;;;;;3.67;1.30;;;28.60;39.10;;;;;;5101405;28;20227;-70
2021/05/22 11:35:27;;;;;;;4.87;1.10;;;28.50;39.00;;;;;;5096117;28;20582;-70
2021/05/22 11:37:55;;;;;;;1.83;1.20;;;28.20;36.80;;;;;;5103304;28;20212;-70
2021/05/22 11:40:45;;;;;;;3.73;1.30;;;27.70;38.40;;;;;;5102416;28;20301;-70
2021/05/22 11:43:12;;;;;;;4.97;1.20;;;27.40;39.90;;;;;;5092114;28;20606;-70
2021/05/22 11:45:39;;;;;;;2.67;1.00;;;27.30;40.00;;;;;;5103827;28;20212;-70
2021/05/22 11:48:33;;;;;;;2.80;1.00;;;27.30;39.40;;;;;;5103283;28;20250;-70
2021/05/22 11:51:06;;;;;;;3.37;1.10;;;27.20;38.30;;;;;;5097436;28;20239;-70
2021/05/22 11:53:34;;;;;;;2.50;1.10;;;27.00;40.60;;;;;;5102048;28;20223;-70
2021/05/22 11:56:13;;;;;;;4.33;1.27;;;26.70;40.00;;;;;;5100993;28;20209;-70
2021/05/22 11:58:48;;;;;;;2.80;1.00;;;26.70;40.70;;;;;;5099364;28;20200;-70
2021/05/22 12:01:22;;;;;;;1.93;1.03;;;26.80;39.90;;;;;;5100876;28;20265;-70
2021/05/22 12:03:52;;;;;;;3.83;1.00;;;27.00;39.70;;;;;;5083546;28;20685;-70
2021/05/22 12:06:38;;;;;;;1.47;1.00;;;27.20;40.20;;;;;;5103020;28;20354;-71
2021/05/22 12:09:16;;;;;;;2.50;1.10;;;27.10;41.40;;;;;;5100620;28;20213;-70
2021/05/22 12:12:01;;;;;;;2.80;1.10;;;27.30;41.00;;;;;;5102355;28;20760;-69
2021/05/22 12:14:42;;;;;;;1.93;1.10;;;27.40;40.00;;;;;;5097053;28;20220;-69
2021/05/22 12:17:11;;;;;;;1.87;0.80;;;27.20;38.90;;;;;;5098495;28;20212;-69
2021/05/22 12:19:41;;;;;;;3.23;1.37;;;27.10;40.30;;;;;;5102120;28;20250;-69
2021/05/22 12:22:10;;;;;;;3.43;1.00;;;27.10;40.10;;;;;;5096902;28;20212;-68
2021/05/22 12:24:38;;;;;;;4.73;1.33;;;26.90;40.20;;;;;;5080634;28;20339;-68
2021/05/22 12:27:07;;;;;;;5.27;1.10;;;26.80;39.20;;;;;;5103259;28;20644;-68
2021/05/22 12:29:34;;;;;;;3.87;1.43;;;26.60;39.80;;;;;;5100638;28;20269;-68
2021/05/22 12:32:05;;;;;;;5.67;1.17;;;26.70;41.20;;;;;;5099864;28;20204;-68
2021/05/22 12:34:35;;;;;;;4.90;1.47;;;26.80;41.90;;;;;;5082783;28;20205;-68
2021/05/22 12:37:10;;;;;;;2.80;1.23;;;26.90;41.60;;;;;;5100241;28;20524;-68
2021/05/22 12:39:43;;;;;;;2.40;0.83;;;27.00;41.40;;;;;;5099948;28;20220;-68
2021/05/22 12:42:20;;;;;;;2.27;1.13;;;27.20;41.90;;;;;;5102560;28;20208;-69
2021/05/22 12:44:54;;;;;;;3.20;1.10;;;27.20;42.20;;;;;;5081564;28;20236;-68
2021/05/22 12:47:24;;;;;;;3.83;1.20;;;27.30;41.10;;;;;;5099538;28;20245;-68
2021/05/22 12:50:03;;;;;;;4.53;1.20;;;27.30;41.50;;;;;;5062171;28;20218;-68
2021/05/22 12:52:30;;;;;;;3.53;1.10;;;27.30;41.30;;;;;;5094651;28;20794;-68
2021/05/22 12:54:58;;;;;;;2.93;1.00;;;27.30;41.30;;;;;;5094406;28;20223;-68
2021/05/22 12:57:35;;;;;;;2.87;1.23;;;27.10;40.00;;;;;;5099987;28;20213;-68
2021/05/22 13:00:03;;;;;;;5.00;1.40;;;26.90;40.70;;;;;;5104646;28;20371;-68
2021/05/22 13:02:33;;;;;;;4.30;1.17;;;26.80;41.70;;;;;;5105691;28;20250;-68